Time;durP1;ratioP1;P1;durP2;ratioP2;P2;SDS_P1;SDS_P2;PMS_P1;PMS_P2;Temp;Humidity;BMP_temperature;BMP_pressure;BME280_temperature;BME280_humidity;BME280_pressure;Samples;Min_cycle;Max_cycle;Signal;HPM_P1;HPM_P2
2022/01/30 00:01:15;;;;;;;;;;;14.60;57.60;;;;;;5014148;28;20350;-70
2022/01/30 00:03:43;;;;;;;;;;;14.50;57.60;;;;;;5026446;28;20413;-70
2022/01/30 00:06:09;;;;;;;;;;;14.50;57.60;;;;;;5013634;28;19965;-70
2022/01/30 00:08:36;;;;;;;;;;;14.50;57.70;;;;;;5025066;28;20004;-70
2022/01/30 00:11:11;;;;;;;;;;;14.50;57.70;;;;;;5034837;28;19925;-73
2022/01/30 00:13:38;;;;;;;;;;;14.50;57.70;;;;;;5033730;28;20012;-73
2022/01/30 00:16:08;;;;;;;;;;;14.40;57.60;;;;;;5034169;28;19925;-73
2022/01/30 00:18:46;;;;;;;;;;;14.40;57.70;;;;;;5033533;28;20382;-73
2022/01/30 00:21:28;;;;;;;;;;;14.40;57.70;;;;;;5018629;28;19925;-73
2022/01/30 00:24:00;;;;;;;;;;;14.40;57.70;;;;;;5013673;28;19932;-73
2022/01/30 00:26:30;;;;;;;;;;;14.40;58.30;;;;;;5013464;28;20398;-73
2022/01/30 00:28:56;;;;;;;;;;;14.40;57.70;;;;;;5013471;28;20421;-73
2022/01/30 00:31:24;;;;;;;;;;;14.30;57.70;;;;;;5013198;28;20016;-73
2022/01/30 00:33:51;;;;;;;;;;;14.30;57.70;;;;;;5014458;28;19940;-73
2022/01/30 00:36:19;;;;;;;;;;;14.30;57.80;;;;;;5013034;28;19925;-71
2022/01/30 00:38:46;;;;;;;;;;;14.30;57.70;;;;;;5013120;28;19961;-73
2022/01/30 00:41:12;;;;;;;;;;;14.30;57.80;;;;;;5013357;28;20012;-73
2022/01/30 00:43:39;;;;;;;;;;;14.30;57.80;;;;;;5014161;28;20285;-74
2022/01/30 00:46:06;;;;;;;;;;;14.30;57.80;;;;;;5013022;28;20020;-73
2022/01/30 00:48:32;;;;;;;;;;;14.30;57.80;;;;;;5014071;28;20008;-73
2022/01/30 00:50:59;;;;;;;;;;;14.30;57.80;;;;;;5013193;28;20012;-73
2022/01/30 00:53:27;;;;;;;;;;;14.20;57.70;;;;;;5012927;28;20004;-73
2022/01/30 00:55:54;;;;;;;;;;;14.20;57.70;;;;;;5012611;28;20009;-70
2022/01/30 00:58:20;;;;;;;;;;;14.20;57.70;;;;;;4992506;28;20032;-72
2022/01/30 01:00:47;;;;;;;;;;;14.20;57.80;;;;;;4993174;28;20421;-70
2022/01/30 01:03:13;;;;;;;;;;;14.20;57.80;;;;;;5010530;28;20012;-70
2022/01/30 01:05:40;;;;;;;;;;;14.20;57.80;;;;;;5012677;28;19932;-70
2022/01/30 01:08:13;;;;;;;;;;;14.20;57.80;;;;;;5012751;28;20372;-72
2022/01/30 01:10:45;;;;;;;;;;;14.20;58.40;;;;;;5012836;28;19932;-70
2022/01/30 01:24:19;;;;;;;;;;;14.10;57.80;;;;;;4955858;28;19922;-71
2022/01/30 01:26:47;;;;;;;;;;;14.10;57.80;;;;;;4985625;28;19932;-70
2022/01/30 01:29:15;;;;;;;;;;;14.10;57.80;;;;;;5012082;28;20385;-70
2022/01/30 01:31:41;;;;;;;;;;;14.10;57.70;;;;;;5011772;28;20041;-71
2022/01/30 01:34:22;;;;;;;;;;;14.10;57.80;;;;;;5012375;28;20016;-70
2022/01/30 01:36:49;;;;;;;;;;;14.10;57.80;;;;;;5013045;28;20333;-73
2022/01/30 01:39:16;;;;;;;;;;;14.10;57.80;;;;;;5011911;28;19929;-70
2022/01/30 01:41:42;;;;;;;;;;;14.10;57.80;;;;;;5011948;28;20016;-70
2022/01/30 01:44:15;;;;;;;;;;;14.10;57.80;;;;;;5012232;28;19961;-70
2022/01/30 01:46:45;;;;;;;;;;;14.10;57.80;;;;;;5011030;28;21302;-71
2022/01/30 01:49:20;;;;;;;;;;;14.10;57.80;;;;;;5013181;28;20344;-72
2022/01/30 01:51:50;;;;;;;;;;;14.10;57.70;;;;;;5011906;28;19973;-70
2022/01/30 01:54:17;;;;;;;;;;;14.10;57.80;;;;;;5012945;28;20275;-70
2022/01/30 01:56:43;;;;;;;;;;;14.10;57.80;;;;;;5012682;28;20016;-70
2022/01/30 01:59:10;;;;;;;;;;;14.10;57.70;;;;;;5011985;28;19926;-71
2022/01/30 02:01:38;;;;;;;;;;;14.10;57.80;;;;;;5011639;28;20012;-70
2022/01/30 02:04:05;;;;;;;;;;;14.10;57.70;;;;;;5011899;28;20440;-70
2022/01/30 02:06:31;;;;;;;;;;;14.20;57.70;;;;;;5011499;28;19968;-70
2022/01/30 02:09:01;;;;;;;;;;;14.20;57.70;;;;;;5011745;28;19969;-70
2022/01/30 02:11:35;;;;;;;;;;;14.20;57.70;;;;;;5011420;28;19933;-70
2022/01/30 02:14:25;;;;;;;;;;;14.20;57.80;;;;;;5011638;28;20016;-70
2022/01/30 02:27:57;;;;;;;;;;;14.20;57.60;;;;;;5005811;28;19922;-72
2022/01/30 02:30:28;;;;;;;;;;;14.30;57.70;;;;;;5011526;28;19925;-70
2022/01/30 02:32:56;;;;;;;;;;;14.30;57.60;;;;;;5011175;28;19925;-70
2022/01/30 02:35:23;;;;;;;;;;;14.30;57.60;;;;;;5011299;28;20549;-72
2022/01/30 02:37:53;;;;;;;;;;;14.30;57.60;;;;;;5011094;28;20008;-71
2022/01/30 02:40:19;;;;;;;;;;;14.30;57.60;;;;;;5011435;28;20279;-71
2022/01/30 02:42:50;;;;;;;;;;;14.30;57.50;;;;;;5011109;28;19965;-70
2022/01/30 02:45:18;;;;;;;;;;;14.30;57.50;;;;;;5011451;28;19929;-70
2022/01/30 02:47:56;;;;;;;;;;;14.30;57.50;;;;;;5012237;28;19961;-70
2022/01/30 02:50:34;;;;;;;;;;;14.30;57.50;;;;;;5011368;28;19926;-70
2022/01/30 02:53:04;;;;;;;;;;;14.40;57.50;;;;;;5011000;28;19932;-70
2022/01/30 02:55:31;;;;;;;;;;;14.30;57.40;;;;;;5011240;28;20330;-70
2022/01/30 02:57:57;;;;;;;;;;;14.30;57.40;;;;;;5027603;28;20043;-72
2022/01/30 03:00:24;;;;;;;;;;;14.40;57.50;;;;;;5032011;28;20019;-70
2022/01/30 03:02:51;;;;;;;;;;;14.40;57.40;;;;;;5030722;28;20012;-70
2022/01/30 03:05:17;;;;;;;;;;;14.40;57.40;;;;;;5031870;28;20093;-73
2022/01/30 03:07:44;;;;;;;;;;;14.40;57.40;;;;;;5030671;28;20009;-70
2022/01/30 03:10:12;;;;;;;;;;;14.40;57.30;;;;;;5030937;28;20008;-70
2022/01/30 03:12:39;;;;;;;;;;;14.40;57.30;;;;;;5030301;28;19925;-70
2022/01/30 03:15:06;;;;;;;;;;;14.40;57.30;;;;;;5030912;28;20024;-70
2022/01/30 03:17:32;;;;;;;;;;;14.40;57.30;;;;;;5030319;28;20254;-70
2022/01/30 03:19:59;;;;;;;;;;;14.40;57.30;;;;;;5030617;28;19932;-70
2022/01/30 03:22:26;;;;;;;;;;;14.40;57.30;;;;;;5032956;28;20531;-70
2022/01/30 03:24:53;;;;;;;;;;;14.40;57.30;;;;;;5035593;28;19968;-70
2022/01/30 03:27:21;;;;;;;;;;;14.40;57.30;;;;;;5034326;28;19931;-70
2022/01/30 03:29:51;;;;;;;;;;;14.40;57.30;;;;;;5034454;28;19929;-70
2022/01/30 03:32:18;;;;;;;;;;;14.40;57.20;;;;;;5035529;28;20032;-70
2022/01/30 03:34:45;;;;;;;;;;;14.40;57.30;;;;;;5034082;28;20115;-71
2022/01/30 03:37:11;;;;;;;;;;;14.50;57.30;;;;;;5033873;28;20015;-70
2022/01/30 03:39:38;;;;;;;;;;;14.40;57.20;;;;;;5018077;28;19925;-70
2022/01/30 03:42:05;;;;;;;;;;;14.50;57.20;;;;;;5014136;28;20020;-71
2022/01/30 03:44:33;;;;;;;;;;;14.50;57.40;;;;;;5014212;28;20000;-70
2022/01/30 03:46:59;;;;;;;;;;;14.50;57.20;;;;;;5013712;28;20520;-70
2022/01/30 03:49:26;;;;;;;;;;;14.50;57.20;;;;;;5014084;28;19947;-70
2022/01/30 03:51:53;;;;;;;;;;;14.50;57.20;;;;;;5013833;28;19940;-72
2022/01/30 03:54:19;;;;;;;;;;;14.50;57.80;;;;;;5014051;28;20017;-71
2022/01/30 03:56:46;;;;;;;;;;;14.50;57.20;;;;;;5013577;28;20357;-70
2022/01/30 03:59:12;;;;;;;;;;;14.50;57.20;;;;;;5013988;28;20012;-70
2022/01/30 04:01:40;;;;;;;;;;;14.50;57.20;;;;;;5013756;28;19925;-72
2022/01/30 04:04:07;;;;;;;;;;;14.50;57.10;;;;;;5013477;28;20020;-70
2022/01/30 04:06:34;;;;;;;;;;;14.50;57.20;;;;;;5013628;28;19932;-70
2022/01/30 04:09:00;;;;;;;;;;;14.50;57.20;;;;;;5013880;28;19925;-69
2022/01/30 04:11:29;;;;;;;;;;;14.50;57.20;;;;;;5013619;28;19925;-72
2022/01/30 04:13:56;;;;;;;;;;;14.40;57.10;;;;;;5013201;28;19925;-70
2022/01/30 04:16:23;;;;;;;;;;;14.50;57.10;;;;;;5013417;28;19933;-70
2022/01/30 04:18:51;;;;;;;;;;;14.50;57.20;;;;;;5013580;28;19926;-70
2022/01/30 04:21:18;;;;;;;;;;;14.50;57.10;;;;;;5013669;28;19941;-72
2022/01/30 04:23:44;;;;;;;;;;;14.50;57.20;;;;;;5013672;28;19948;-70
2022/01/30 04:26:11;;;;;;;;;;;14.50;57.10;;;;;;5013308;28;19925;-73
2022/01/30 04:28:38;;;;;;;;;;;14.50;57.10;;;;;;5013626;28;19930;-73
2022/01/30 04:31:04;;;;;;;;;;;14.50;57.10;;;;;;5013506;28;20457;-73
2022/01/30 04:33:31;;;;;;;;;;;14.40;57.10;;;;;;5012154;28;19947;-73
2022/01/30 04:36:00;;;;;;;;;;;14.50;57.20;;;;;;5012886;28;19987;-73
2022/01/30 04:38:33;;;;;;;;;;;14.50;57.20;;;;;;5014388;28;19968;-73
2022/01/30 04:41:23;;;;;;;;;;;14.50;57.10;;;;;;5013306;28;19926;-73
2022/01/30 04:57:52;;;;;;;;;;;14.40;57.10;;;;;;5014608;28;19925;-73
2022/01/30 05:00:31;;;;;;;;;;;14.40;57.10;;;;;;5033119;28;19929;-72
2022/01/30 05:03:05;;;;;;;;;;;14.40;57.10;;;;;;5032678;28;19975;-73
2022/01/30 05:05:54;;;;;;;;;;;14.40;57.70;;;;;;5032389;28;20005;-73
2022/01/30 05:08:23;;;;;;;;;;;14.40;57.10;;;;;;5032608;28;19948;-73
2022/01/30 05:10:49;;;;;;;;;;;14.40;57.10;;;;;;5032697;28;19925;-73
2022/01/30 05:13:20;;;;;;;;;;;14.40;57.10;;;;;;5032583;28;20020;-73
2022/01/30 05:15:46;;;;;;;;;;;14.40;57.10;;;;;;5032520;28;19932;-73
2022/01/30 05:18:17;;;;;;;;;;;14.40;57.10;;;;;;5032150;28;20015;-71
2022/01/30 05:20:44;;;;;;;;;;;14.40;57.10;;;;;;5032136;28;20356;-73
2022/01/30 05:23:10;;;;;;;;;;;14.40;57.10;;;;;;5031931;28;19931;-73
2022/01/30 05:25:39;;;;;;;;;;;14.40;57.10;;;;;;5033211;28;20023;-73
2022/01/30 05:28:06;;;;;;;;;;;14.40;57.10;;;;;;5032184;28;20387;-73
2022/01/30 05:30:33;;;;;;;;;;;14.30;57.00;;;;;;5031940;28;19925;-73
2022/01/30 05:33:00;;;;;;;;;;;14.40;57.10;;;;;;5032114;28;20011;-73
2022/01/30 05:35:27;;;;;;;;;;;14.40;57.10;;;;;;5032127;28;20427;-73
2022/01/30 05:37:54;;;;;;;;;;;14.40;57.10;;;;;;5031894;28;19931;-72
2022/01/30 05:40:21;;;;;;;;;;;14.30;57.00;;;;;;5031903;28;20016;-73
2022/01/30 05:42:49;;;;;;;;;;;14.40;57.10;;;;;;5031671;28;20063;-72
2022/01/30 05:45:20;;;;;;;;;;;14.40;57.10;;;;;;5031724;28;20012;-71
2022/01/30 05:47:51;;;;;;;;;;;14.40;57.10;;;;;;5031808;28;20365;-73
2022/01/30 05:50:18;;;;;;;;;;;14.30;57.00;;;;;;5032129;28;19983;-73
2022/01/30 05:52:44;;;;;;;;;;;14.40;57.10;;;;;;5031743;28;20012;-73
2022/01/30 05:55:11;;;;;;;;;;;14.30;57.00;;;;;;5031669;28;19931;-73
2022/01/30 05:57:37;;;;;;;;;;;14.40;57.10;;;;;;5017438;28;19985;-73
2022/01/30 06:00:06;;;;;;;;;;;14.40;57.10;;;;;;5012121;28;20046;-71
2022/01/30 06:02:33;;;;;;;;;;;14.40;57.10;;;;;;5011618;28;20359;-73
2022/01/30 06:04:59;;;;;;;;;;;14.40;57.10;;;;;;5011924;28;19940;-73
2022/01/30 06:07:29;;;;;;;;;;;14.40;57.10;;;;;;5011828;28;20012;-73
2022/01/30 06:09:55;;;;;;;;;;;14.40;57.10;;;;;;5011955;28;19932;-73
2022/01/30 06:12:22;;;;;;;;;;;14.40;57.10;;;;;;5011651;28;19931;-73
2022/01/30 06:14:48;;;;;;;;;;;14.40;57.10;;;;;;5011699;28;20016;-73
2022/01/30 06:17:16;;;;;;;;;;;14.30;57.00;;;;;;5012546;28;20001;-73
2022/01/30 06:19:43;;;;;;;;;;;14.40;57.00;;;;;;5011820;28;20413;-72
2022/01/30 06:22:09;;;;;;;;;;;14.40;57.00;;;;;;5011844;28;20016;-73
2022/01/30 06:24:36;;;;;;;;;;;14.40;57.10;;;;;;5012769;28;19925;-73
2022/01/30 06:27:03;;;;;;;;;;;14.30;57.00;;;;;;5011341;28;19931;-71
2022/01/30 06:29:29;;;;;;;;;;;14.40;57.00;;;;;;5011736;28;19933;-72
2022/01/30 06:31:56;;;;;;;;;;;14.40;57.00;;;;;;5011316;28;19980;-73
2022/01/30 06:34:24;;;;;;;;;;;14.40;57.00;;;;;;5011697;28;20016;-73
2022/01/30 06:36:50;;;;;;;;;;;14.40;57.00;;;;;;5011321;28;20474;-73
2022/01/30 06:39:17;;;;;;;;;;;14.40;57.00;;;;;;5012426;28;20012;-71
2022/01/30 06:41:43;;;;;;;;;;;14.40;57.00;;;;;;5011482;28;20024;-73
2022/01/30 06:44:10;;;;;;;;;;;14.40;57.00;;;;;;5008928;28;19968;-73
2022/01/30 06:46:37;;;;;;;;;;;14.40;57.00;;;;;;4996828;28;20009;-72
2022/01/30 06:49:03;;;;;;;;;;;14.40;57.00;;;;;;4991719;28;20013;-71
2022/01/30 06:51:31;;;;;;;;;;;14.40;57.00;;;;;;4992855;28;19936;-73
2022/01/30 06:53:58;;;;;;;;;;;14.40;56.90;;;;;;4991718;28;19925;-73
2022/01/30 06:56:24;;;;;;;;;;;14.40;56.90;;;;;;5000390;28;19925;-73
2022/01/30 06:58:53;;;;;;;;;;;14.40;56.90;;;;;;5034988;28;20016;-73
2022/01/30 07:01:19;;;;;;;;;;;14.40;56.90;;;;;;5035105;28;19933;-73
2022/01/30 07:03:46;;;;;;;;;;;14.40;56.90;;;;;;5034996;28;20015;-72
2022/01/30 07:06:12;;;;;;;;;;;14.40;56.90;;;;;;5034844;28;20380;-72
2022/01/30 07:08:40;;;;;;;;;;;14.40;57.00;;;;;;5034886;28;19951;-73
2022/01/30 07:11:07;;;;;;;;;;;14.40;56.90;;;;;;5035874;28;20012;-73
2022/01/30 07:13:34;;;;;;;;;;;14.40;56.90;;;;;;5035717;28;20016;-73
2022/01/30 07:16:00;;;;;;;;;;;14.40;57.50;;;;;;5033990;28;19925;-73
2022/01/30 07:18:27;;;;;;;;;;;14.40;56.90;;;;;;5034642;28;20012;-70
2022/01/30 07:20:54;;;;;;;;;;;14.40;56.90;;;;;;5034387;28;19983;-70
2022/01/30 07:23:20;;;;;;;;;;;14.40;56.90;;;;;;5034282;28;20008;-72
2022/01/30 07:25:48;;;;;;;;;;;14.40;56.90;;;;;;5034033;28;19960;-70
2022/01/30 07:28:15;;;;;;;;;;;14.40;56.90;;;;;;5034723;28;19932;-70
2022/01/30 07:30:41;;;;;;;;;;;14.40;56.90;;;;;;5034245;28;20304;-70
2022/01/30 07:33:08;;;;;;;;;;;14.40;56.90;;;;;;5034473;28;19929;-70
2022/01/30 07:35:37;;;;;;;;;;;14.40;56.90;;;;;;5034356;28;20024;-70
2022/01/30 07:38:03;;;;;;;;;;;14.40;56.90;;;;;;5033950;28;19931;-70
2022/01/30 07:40:32;;;;;;;;;;;14.40;56.90;;;;;;5026275;28;19929;-70
2022/01/30 07:43:00;;;;;;;;;;;14.30;56.80;;;;;;5011555;28;20430;-70
2022/01/30 07:45:26;;;;;;;;;;;14.30;56.80;;;;;;5014192;28;19971;-70
2022/01/30 07:47:53;;;;;;;;;;;14.30;56.80;;;;;;5014401;28;20008;-72
2022/01/30 07:50:20;;;;;;;;;;;14.30;56.80;;;;;;5012292;28;20016;-70
2022/01/30 07:52:46;;;;;;;;;;;14.30;56.90;;;;;;5011940;28;20533;-70
2022/01/30 07:55:13;;;;;;;;;;;14.30;56.90;;;;;;5013138;28;20518;-70
2022/01/30 07:57:41;;;;;;;;;;;14.30;56.80;;;;;;5000259;28;20417;-71
2022/01/30 08:00:10;;;;;;;;;;;14.30;56.80;;;;;;4994071;28;19925;-70
2022/01/30 08:02:36;;;;;;;;;;;14.30;56.80;;;;;;4992571;28;19926;-70
2022/01/30 08:05:03;;;;;;;;;;;14.30;56.90;;;;;;4994230;28;19926;-70
2022/01/30 08:07:31;;;;;;;;;;;14.30;56.90;;;;;;4993741;28;20016;-71
2022/01/30 08:09:57;;;;;;;;;;;14.30;56.90;;;;;;4994529;28;19926;-70
2022/01/30 08:12:24;;;;;;;;;;;14.30;56.90;;;;;;4994479;28;20365;-71
2022/01/30 08:14:50;;;;;;;;;;;14.30;56.80;;;;;;4994162;28;20020;-71
2022/01/30 08:17:22;;;;;;;;;;;14.30;56.80;;;;;;4999960;28;20345;-71
2022/01/30 08:19:48;;;;;;;;;;;14.30;56.80;;;;;;5013865;28;19931;-71
2022/01/30 08:22:15;;;;;;;;;;;14.40;56.80;;;;;;5013761;28;19925;-70
2022/01/30 08:24:42;;;;;;;;;;;14.40;56.70;;;;;;5013762;28;19926;-70
2022/01/30 08:27:08;;;;;;;;;;;14.50;56.80;;;;;;5013545;28;20008;-71
2022/01/30 08:29:35;;;;;;;;;;;14.50;56.70;;;;;;5013368;28;20016;-71
2022/01/30 08:32:01;;;;;;;;;;;14.50;56.60;;;;;;5013625;28;20015;-70
2022/01/30 08:34:29;;;;;;;;;;;14.60;56.60;;;;;;5013634;28;20008;-70
2022/01/30 08:36:56;;;;;;;;;;;14.60;56.60;;;;;;5013297;28;20414;-70
2022/01/30 08:39:22;;;;;;;;;;;14.60;56.60;;;;;;5012961;28;20020;-70
2022/01/30 08:41:49;;;;;;;;;;;14.60;56.50;;;;;;5013384;28;20004;-70
2022/01/30 08:44:15;;;;;;;;;;;14.70;56.50;;;;;;5014236;28;20000;-70
2022/01/30 08:46:42;;;;;;;;;;;14.70;56.50;;;;;;5012874;28;19926;-70
2022/01/30 08:49:09;;;;;;;;;;;14.70;56.40;;;;;;5013343;28;20004;-72
2022/01/30 08:51:37;;;;;;;;;;;14.80;56.40;;;;;;5012766;28;20028;-71
2022/01/30 08:54:04;;;;;;;;;;;14.80;56.30;;;;;;5014240;28;20020;-69
2022/01/30 08:56:30;;;;;;;;;;;14.80;56.20;;;;;;5012853;28;19925;-68
2022/01/30 08:58:57;;;;;;;;;;;14.90;56.20;;;;;;5012659;28;20400;-68
2022/01/30 09:01:24;;;;;;;;;;;14.90;56.10;;;;;;5014358;28;19925;-68
2022/01/30 09:03:51;;;;;;;;;;;14.90;56.00;;;;;;5006762;28;20323;-69
2022/01/30 09:06:17;;;;;;;;;;;15.00;56.00;;;;;;5003097;28;19929;-67
2022/01/30 09:08:45;;;;;;;;;;;15.00;56.00;;;;;;5012997;28;20011;-68
2022/01/30 09:11:12;;;;;;;;;;;15.00;55.90;;;;;;5013719;28;20468;-70
2022/01/30 09:13:39;;;;;;;;;;;15.00;55.90;;;;;;5012862;28;20016;-67
2022/01/30 09:16:05;;;;;;;;;;;15.00;55.80;;;;;;5011572;28;19926;-71
2022/01/30 09:18:32;;;;;;;;;;;15.10;55.90;;;;;;4998039;28;20016;-68
2022/01/30 09:20:59;;;;;;;;;;;15.10;56.10;;;;;;4991988;28;19925;-68
2022/01/30 09:23:25;;;;;;;;;;;15.20;56.00;;;;;;4993210;28;20020;-69
2022/01/30 09:25:53;;;;;;;;;;;15.20;55.80;;;;;;4992878;28;19926;-69
2022/01/30 09:28:20;;;;;;;;;;;15.20;55.80;;;;;;4992720;28;19940;-69
2022/01/30 09:30:46;;;;;;;;;;;15.20;55.70;;;;;;4997008;28;20382;-68
2022/01/30 09:33:13;;;;;;;;;;;15.20;55.60;;;;;;5012014;28;20012;-68
2022/01/30 09:35:40;;;;;;;;;;;15.30;55.70;;;;;;5011996;28;20013;-70
2022/01/30 09:38:06;;;;;;;;;;;15.30;55.60;;;;;;5013418;28;19925;-68
2022/01/30 09:40:33;;;;;;;;;;;15.30;55.50;;;;;;5011887;28;19932;-70
2022/01/30 09:43:01;;;;;;;;;;;15.30;55.50;;;;;;5013364;28;19925;-73
2022/01/30 09:45:28;;;;;;;;;;;15.30;55.50;;;;;;5012136;28;20008;-73
2022/01/30 09:47:55;;;;;;;;;;;15.30;55.50;;;;;;5013375;28;19929;-73
2022/01/30 09:50:22;;;;;;;;;;;15.30;55.40;;;;;;5012090;28;19942;-72
2022/01/30 09:52:49;;;;;;;;;;;15.30;55.40;;;;;;5012083;28;20028;-73
2022/01/30 09:55:16;;;;;;;;;;;15.40;55.40;;;;;;5012084;28;20470;-73
2022/01/30 09:57:43;;;;;;;;;;;15.40;55.30;;;;;;5011322;28;20289;-71
2022/01/30 10:00:11;;;;;;;;;;;15.40;55.30;;;;;;5011430;28;19930;-73
2022/01/30 10:02:40;;;;;;;;;;;15.40;55.20;;;;;;5010188;28;20335;-73
2022/01/30 10:05:07;;;;;;;;;;;15.40;55.20;;;;;;5011508;28;19976;-73
2022/01/30 10:07:44;;;;;;;;;;;15.50;55.30;;;;;;5011478;28;20008;-73
2022/01/30 10:10:11;;;;;;;;;;;15.50;55.20;;;;;;5011588;28;20036;-73
2022/01/30 10:12:39;;;;;;;;;;;15.50;55.20;;;;;;5008742;28;19965;-73
2022/01/30 10:15:06;;;;;;;;;;;15.50;55.20;;;;;;5011560;28;20438;-73
2022/01/30 10:17:35;;;;;;;;;;;15.50;55.10;;;;;;5010959;28;20378;-73
2022/01/30 10:20:03;;;;;;;;;;;15.60;55.20;;;;;;5010445;28;19930;-73
2022/01/30 10:22:29;;;;;;;;;;;15.60;55.10;;;;;;5005105;28;20025;-73
2022/01/30 10:24:56;;;;;;;;;;;15.60;55.10;;;;;;5004783;28;20254;-73
2022/01/30 10:27:24;;;;;;;;;;;15.60;55.00;;;;;;5002055;28;20382;-71
2022/01/30 10:29:56;;;;;;;;;;;15.60;55.00;;;;;;5001537;28;20290;-70
2022/01/30 10:32:23;;;;;;;;;;;15.70;55.00;;;;;;5000483;28;20016;-72
2022/01/30 10:34:57;;;;;;;;;;;15.70;55.00;;;;;;5003262;28;20434;-70
2022/01/30 10:37:24;;;;;;;;;;;15.70;55.00;;;;;;5002248;28;19941;-72
2022/01/30 10:40:11;;;;;;;;;;;15.70;55.00;;;;;;5000117;28;19926;-73
2022/01/30 10:42:39;;;;;;;;;;;15.70;54.90;;;;;;5011668;28;19925;-73
2022/01/30 10:45:07;;;;;;;;;;;15.70;54.90;;;;;;5011526;28;20024;-74
2022/01/30 10:47:35;;;;;;;;;;;15.80;54.90;;;;;;5011024;28;19925;-73
2022/01/30 10:50:03;;;;;;;;;;;15.80;55.00;;;;;;5002541;28;19933;-72
2022/01/30 10:52:31;;;;;;;;;;;15.80;54.90;;;;;;5012380;28;20028;-72
2022/01/30 10:55:03;;;;;;;;;;;15.80;54.90;;;;;;5011539;28;19932;-72
2022/01/30 10:57:30;;;;;;;;;;;15.80;54.90;;;;;;5012279;28;20024;-73
2022/01/30 10:59:57;;;;;;;;;;;15.90;54.90;;;;;;5010933;28;19968;-72
2022/01/30 11:02:24;;;;;;;;;;;15.80;54.70;;;;;;5014898;28;19972;-72
2022/01/30 11:04:51;;;;;;;;;;;15.80;54.70;;;;;;5012170;28;20354;-71
2022/01/30 11:07:20;;;;;;;;;;;15.90;54.70;;;;;;5011061;28;19925;-72
2022/01/30 11:09:55;;;;;;;;;;;15.90;54.70;;;;;;5011170;28;20366;-72
2022/01/30 11:12:31;;;;;;;;;;;15.90;54.80;;;;;;5011182;28;19925;-72
2022/01/30 11:15:15;;;;;;;;;;;15.90;54.80;;;;;;5011014;28;19925;-72
2022/01/30 11:17:42;;;;;;;;;;;15.80;54.70;;;;;;5011182;28;20396;-74
2022/01/30 11:20:09;;;;;;;;;;;15.90;54.80;;;;;;5010912;28;19972;-72
2022/01/30 11:22:37;;;;;;;;;;;15.90;55.50;;;;;;5011427;28;19925;-72
2022/01/30 11:25:04;;;;;;;;;;;16.00;56.10;;;;;;5011000;28;20015;-72
2022/01/30 11:27:31;;;;;;;;;;;16.00;56.50;;;;;;5010955;28;19926;-72
2022/01/30 11:29:57;;;;;;;;;;;16.10;56.60;;;;;;5011993;28;19964;-73
2022/01/30 11:32:25;;;;;;;;;;;16.20;56.50;;;;;;5010930;28;20020;-72
2022/01/30 11:34:52;;;;;;;;;;;16.30;56.40;;;;;;5004584;28;20389;-72
2022/01/30 11:37:19;;;;;;;;;;;16.40;56.30;;;;;;5000915;28;19926;-73
2022/01/30 11:39:47;;;;;;;;;;;16.40;56.10;;;;;;5010754;28;19925;-72
2022/01/30 11:42:19;;;;;;;;;;;16.50;55.90;;;;;;5011558;28;20005;-73
2022/01/30 11:44:46;;;;;;;;;;;16.50;55.90;;;;;;5014785;28;19932;-66
2022/01/30 11:47:22;;;;;;;;;;;16.60;55.70;;;;;;5014119;28;20317;-69
2022/01/30 11:49:50;;;;;;;;;;;16.20;55.30;;;;;;5015605;28;19960;-67
2022/01/30 11:52:17;;;;;;;;;;;16.60;55.50;;;;;;5014304;28;20025;-67
2022/01/30 11:54:43;;;;;;;;;;;16.50;55.30;;;;;;5012135;28;19932;-70
2022/01/30 11:57:25;;;;;;;;;;;16.50;55.40;;;;;;5008081;28;20017;-67
2022/01/30 11:59:53;;;;;;;;;;;16.50;55.30;;;;;;5013777;28;19932;-69
2022/01/30 12:02:23;;;;;;;;;;;16.50;55.30;;;;;;5024599;28;19936;-67
2022/01/30 12:04:53;;;;;;;;;;;16.40;55.40;;;;;;5014371;28;19947;-69
2022/01/30 12:07:31;;;;;;;;;;;16.40;55.50;;;;;;5026538;28;19936;-71
2022/01/30 12:10:13;;;;;;;;;;;16.40;55.40;;;;;;5033559;28;20011;-69
2022/01/30 12:12:46;;;;;;;;;;;16.40;55.40;;;;;;5032490;28;20313;-68
2022/01/30 12:15:22;;;;;;;;;;;16.40;55.40;;;;;;5033779;28;19931;-68
2022/01/30 12:17:50;;;;;;;;;;;16.30;55.40;;;;;;5032472;28;20383;-69
2022/01/30 12:20:17;;;;;;;;;;;16.30;55.40;;;;;;5034687;28;20374;-69
2022/01/30 12:22:44;;;;;;;;;;;16.30;55.40;;;;;;5033926;28;20385;-68
2022/01/30 12:25:21;;;;;;;;;;;16.30;55.50;;;;;;5033630;28;20004;-68
2022/01/30 12:27:48;;;;;;;;;;;16.30;55.50;;;;;;5033018;28;20021;-68
2022/01/30 12:33:26;;;;;;;;;;;16.20;55.50;;;;;;5110422;27;20305;-68
2022/01/30 12:35:54;;;;;;;;;;;16.20;55.50;;;;;;5108839;28;20003;-70
2022/01/30 12:38:29;;;;;;;;;;;16.20;55.60;;;;;;5110370;28;20007;-70
2022/01/30 12:40:55;;;;;;;;;;;16.20;55.60;;;;;;5109113;28;20015;-68
2022/01/30 12:43:26;;;;;;;;;;;16.10;55.60;;;;;;5109059;28;20464;-68
2022/01/30 12:46:03;;;;;;;;;;;16.10;55.60;;;;;;5108680;28;20011;-68
2022/01/30 12:48:30;;;;;;;;;;;17.60;56.50;;;;;;5109046;28;20014;-68
2022/01/30 12:51:03;;;;;;;;;;;16.00;55.60;;;;;;5109818;28;20402;-68
2022/01/30 12:53:30;;;;;;;;;;;16.00;55.60;;;;;;5108682;28;19927;-69
2022/01/30 12:55:56;;;;;;;;;;;16.00;55.70;;;;;;5108724;28;20010;-68
2022/01/30 12:58:23;;;;;;;;;;;16.00;55.70;;;;;;5108870;28;20010;-69
2022/01/30 13:01:04;;;;;;;;;;;16.00;55.70;;;;;;5109611;28;20402;-69
2022/01/30 13:03:31;;;;;;;;;;;15.90;55.70;;;;;;5108384;28;20010;-70
2022/01/30 13:06:00;;;;;;;;;;;15.90;55.70;;;;;;5108329;28;19924;-68
2022/01/30 13:08:42;;;;;;;;;;;15.90;55.70;;;;;;5105393;28;19925;-68
2022/01/30 13:11:14;;;;;;;;;;;15.80;55.70;;;;;;5103901;28;19924;-67
2022/01/30 13:13:50;;;;;;;;;;;15.90;55.80;;;;;;5106364;28;20265;-72
2022/01/30 13:16:16;;;;;;;;;;;15.80;55.80;;;;;;5088507;28;20377;-72
2022/01/30 13:18:43;;;;;;;;;;;15.80;55.80;;;;;;5095343;28;20031;-73
2022/01/30 13:21:11;;;;;;;;;;;15.80;55.80;;;;;;5088168;28;20065;-71
2022/01/30 13:23:37;;;;;;;;;;;15.80;55.90;;;;;;5088482;28;19999;-71
2022/01/30 13:26:06;;;;;;;;;;;15.80;55.80;;;;;;5088734;28;19931;-73
2022/01/30 13:28:32;;;;;;;;;;;15.80;55.90;;;;;;5101671;28;19924;-73
2022/01/30 13:31:11;;;;;;;;;;;15.70;55.90;;;;;;5109665;28;19931;-71
2022/01/30 13:33:38;;;;;;;;;;;15.80;55.90;;;;;;5129257;28;20447;-71
2022/01/30 13:36:05;;;;;;;;;;;15.70;55.80;;;;;;5128199;28;19930;-72
2022/01/30 13:38:33;;;;;;;;;;;15.70;55.90;;;;;;5129269;28;20011;-72
2022/01/30 13:41:04;;;;;;;;;;;15.70;55.80;;;;;;5129245;27;20392;-70
2022/01/30 13:43:35;;;;;;;;;;;15.70;55.90;;;;;;5119975;28;19967;-71
2022/01/30 13:48:46;;;;;;;;;;;15.60;55.90;;;;;;5114249;28;20002;-73
2022/01/30 13:51:20;;;;;;;;;;;15.60;55.90;;;;;;5114261;28;19934;-73
2022/01/30 13:53:48;;;;;;;;;;;15.50;55.90;;;;;;5114235;28;20022;-72
2022/01/30 13:56:16;;;;;;;;;;;15.60;55.90;;;;;;5111776;28;20353;-71
2022/01/30 13:58:44;;;;;;;;;;;15.50;55.90;;;;;;5114557;28;19923;-71
2022/01/30 14:01:11;;;;;;;;;;;15.50;55.90;;;;;;5105645;28;19924;-70
2022/01/30 14:03:38;;;;;;;;;;;15.50;55.90;;;;;;5104606;28;19923;-70
2022/01/30 14:06:04;;;;;;;;;;;15.50;56.00;;;;;;5104409;28;19924;-71
2022/01/30 14:08:31;;;;;;;;;;;15.50;56.00;;;;;;5102715;28;19930;-71
2022/01/30 14:11:11;;;;;;;;;;;15.50;56.00;;;;;;5104614;28;19967;-69
2022/01/30 14:13:38;;;;;;;;;;;15.50;56.00;;;;;;5102640;28;19924;-70
2022/01/30 14:16:06;;;;;;;;;;;15.40;56.00;;;;;;5103363;28;19956;-70
2022/01/30 14:18:35;;;;;;;;;;;15.40;56.10;;;;;;5104506;28;21520;-70
2022/01/30 14:21:03;;;;;;;;;;;15.40;56.10;;;;;;5100036;28;20277;-70
2022/01/30 14:23:34;;;;;;;;;;;15.40;56.10;;;;;;5102542;28;19934;-70
2022/01/30 14:26:01;;;;;;;;;;;15.40;56.10;;;;;;5092778;28;20015;-69
2022/01/30 14:28:30;;;;;;;;;;;15.40;56.10;;;;;;5101498;28;19924;-71
2022/01/30 14:30:57;;;;;;;;;;;15.40;56.20;;;;;;5092913;28;20295;-69
2022/01/30 14:33:24;;;;;;;;;;;15.40;56.20;;;;;;5091013;28;20005;-71
2022/01/30 14:35:50;;;;;;;;;;;15.40;56.10;;;;;;5094401;28;20007;-69
2022/01/30 14:38:17;;;;;;;;;;;15.40;56.20;;;;;;5092821;28;20453;-69
2022/01/30 14:40:44;;;;;;;;;;;15.40;56.10;;;;;;5098733;28;19924;-72
2022/01/30 14:43:10;;;;;;;;;;;15.40;56.10;;;;;;5102191;28;19936;-70
2022/01/30 14:45:39;;;;;;;;;;;15.40;56.10;;;;;;5101442;28;20019;-69
2022/01/30 14:48:06;;;;;;;;;;;15.40;56.10;;;;;;5102525;28;19943;-72
2022/01/30 14:50:33;;;;;;;;;;;15.40;56.10;;;;;;5121153;27;20003;-69
2022/01/30 14:53:00;;;;;;;;;;;15.40;56.00;;;;;;5101669;28;20309;-72
2022/01/30 14:55:26;;;;;;;;;;;15.50;56.00;;;;;;5101243;28;20014;-70
2022/01/30 14:57:56;;;;;;;;;;;15.50;56.00;;;;;;5107505;28;20006;-69
2022/01/30 15:00:22;;;;;;;;;;;15.50;56.00;;;;;;5102094;28;20380;-71
2022/01/30 15:02:51;;;;;;;;;;;15.50;56.00;;;;;;5102156;28;20273;-69
2022/01/30 15:05:17;;;;;;;;;;;15.50;55.90;;;;;;5103640;28;19947;-69